Time;durP1;ratioP1;P1;durP2;ratioP2;P2;SDS_P1;SDS_P2;PMS_P1;PMS_P2;Temp;Humidity;BMP_temperature;BMP_pressure;BME280_temperature;BME280_humidity;BME280_pressure;Samples;Min_cycle;Max_cycle;Signal;HPM_P1;HPM_P2
2022/11/01 00:01:40;;;;;;;11.27;5.47;;;13.00;97.30;;;;;;5075018;28;20194;-87
2022/11/01 00:04:05;;;;;;;9.10;4.93;;;13.00;97.30;;;;;;5056257;28;20878;-87
2022/11/01 00:06:31;;;;;;;8.70;5.10;;;12.90;97.30;;;;;;5055922;28;20253;-87
2022/11/01 00:08:57;;;;;;;6.80;5.00;;;12.90;97.30;;;;;;5055917;28;20207;-87
2022/11/01 00:11:22;;;;;;;5.10;4.33;;;12.90;97.30;;;;;;5055833;28;20175;-87
2022/11/01 00:13:49;;;;;;;11.30;6.10;;;12.80;97.30;;;;;;5055652;28;20187;-88
2022/11/01 00:16:16;;;;;;;15.10;7.20;;;12.80;97.30;;;;;;5047596;28;20217;-87
2022/11/01 00:18:41;;;;;;;10.13;5.97;;;12.80;97.30;;;;;;5036366;28;20414;-87
2022/11/01 00:21:08;;;;;;;14.00;6.23;;;12.80;97.30;;;;;;5036058;28;20413;-88
2022/11/01 00:23:33;;;;;;;6.00;5.10;;;12.70;97.30;;;;;;5035825;28;20226;-87
2022/11/01 00:26:00;;;;;;;15.73;8.57;;;12.70;97.30;;;;;;5035672;28;20434;-87
2022/11/01 00:28:29;;;;;;;6.60;4.50;;;12.70;97.30;;;;;;5035925;28;20186;-89
2022/11/01 00:30:56;;;;;;;10.93;8.47;;;12.60;97.30;;;;;;5053316;28;20410;-89
2022/11/01 00:33:22;;;;;;;14.20;9.70;;;12.60;97.30;;;;;;5035832;28;21011;-87
2022/11/01 00:35:48;;;;;;;12.60;5.70;;;12.60;97.30;;;;;;5053638;28;20518;-88
2022/11/01 00:38:17;;;;;;;13.43;6.17;;;12.50;97.30;;;;;;5035978;28;20516;-87
2022/11/01 00:40:43;;;;;;;10.33;6.80;;;12.50;97.30;;;;;;5035216;28;20274;-87
2022/11/01 00:43:10;;;;;;;10.30;6.10;;;12.40;97.30;;;;;;5035708;28;20704;-87
2022/11/01 00:45:35;;;;;;;12.80;5.70;;;12.40;97.30;;;;;;5035403;28;20971;-87
2022/11/01 00:48:01;;;;;;;11.30;6.30;;;12.40;97.30;;;;;;5035717;28;20466;-88
2022/11/01 00:50:26;;;;;;;10.30;5.40;;;12.40;97.30;;;;;;5053317;28;20186;-88
2022/11/01 00:52:52;;;;;;;11.33;4.90;;;12.40;97.30;;;;;;5034990;28;20180;-89
2022/11/01 00:55:17;;;;;;;7.90;6.27;;;12.40;97.30;;;;;;5035151;28;20565;-88
2022/11/01 00:57:44;;;;;;;12.07;6.07;;;12.40;97.30;;;;;;5035203;28;20176;-88
2022/11/01 01:00:11;;;;;;;11.93;7.00;;;12.40;97.30;;;;;;5034388;28;20654;-87
2022/11/01 01:02:37;;;;;;;9.00;4.03;;;12.40;97.30;;;;;;5052735;28;20410;-88
2022/11/01 01:05:03;;;;;;;13.90;6.80;;;12.40;97.30;;;;;;5052787;28;20430;-88
2022/11/01 01:07:28;;;;;;;3.80;3.60;;;12.40;97.30;;;;;;5035236;28;20172;-87
2022/11/01 01:09:54;;;;;;;7.13;5.03;;;12.40;97.30;;;;;;5035196;28;20497;-88
2022/11/01 01:12:19;;;;;;;12.23;6.57;;;12.40;97.30;;;;;;5034931;28;20641;-87
2022/11/01 01:14:45;;;;;;;7.70;5.13;;;12.30;97.30;;;;;;5056988;22;20255;-87
2022/11/01 01:17:10;;;;;;;11.17;5.20;;;12.40;97.30;;;;;;5052159;28;20226;-87
2022/11/01 01:19:36;;;;;;;4.90;4.60;;;12.50;97.30;;;;;;5054640;28;20190;-87
2022/11/01 01:22:02;;;;;;;9.67;6.87;;;12.60;97.30;;;;;;5054930;28;20182;-90
2022/11/01 01:24:27;;;;;;;13.37;9.50;;;12.60;97.30;;;;;;5054975;28;20550;-88
2022/11/01 01:26:53;;;;;;;10.93;5.93;;;12.50;97.30;;;;;;5054675;28;20206;-87
2022/11/01 01:29:19;;;;;;;6.17;5.63;;;12.40;97.30;;;;;;5054866;28;20607;-87
2022/11/01 01:31:44;;;;;;;14.80;7.40;;;12.30;97.30;;;;;;5054196;28;20179;-90
2022/11/01 01:34:10;;;;;;;10.10;4.97;;;12.20;97.30;;;;;;5054558;28;20656;-87
2022/11/01 01:36:35;;;;;;;17.13;8.90;;;12.20;97.30;;;;;;5054228;28;20602;-87
2022/11/01 01:39:01;;;;;;;17.93;7.00;;;12.30;97.30;;;;;;5054089;28;20554;-87
2022/11/01 01:44:57;;;;;;;10.03;7.03;;;12.30;97.30;;;;;;5032336;28;20183;-87
2022/11/01 01:47:25;;;;;;;11.83;7.67;;;12.30;97.30;;;;;;5015415;28;20422;-87
2022/11/01 01:50:28;;;;;;;9.43;6.27;;;12.20;97.30;;;;;;5048305;28;20461;-88
2022/11/01 01:53:17;;;;;;;7.43;4.93;;;12.10;97.30;;;;;;5048715;28;20422;-87
2022/11/01 01:55:55;;;;;;;19.10;4.87;;;12.00;97.30;;;;;;5016133;28;20522;-88
2022/11/01 01:58:26;;;;;;;7.83;4.03;;;12.10;97.30;;;;;;5049599;28;20933;-87
2022/11/01 02:00:52;;;;;;;9.80;6.00;;;12.10;97.30;;;;;;5016622;28;20419;-87
2022/11/01 02:03:19;;;;;;;12.93;6.63;;;12.10;97.30;;;;;;5035977;28;20483;-91
2022/11/01 02:05:56;;;;;;;8.00;4.00;;;12.00;97.30;;;;;;5037623;28;20435;-90
2022/11/01 02:08:28;;;;;;;11.57;6.00;;;12.00;97.30;;;;;;5070950;28;20423;-89
2022/11/01 02:11:05;;;;;;;5.53;5.20;;;12.00;97.30;;;;;;5037943;28;20516;-89
2022/11/01 02:13:31;;;;;;;7.67;5.53;;;12.00;97.30;;;;;;5025309;28;20509;-90
2022/11/01 02:16:06;;;;;;;12.53;7.80;;;12.00;97.30;;;;;;5056254;28;20576;-87
2022/11/01 02:18:34;;;;;;;9.90;5.73;;;11.90;97.30;;;;;;5091926;28;20166;-88
2022/11/01 02:21:11;;;;;;;8.00;4.33;;;11.90;97.30;;;;;;5073324;28;20413;-89
2022/11/01 02:24:01;;;;;;;19.20;7.60;;;11.90;97.30;;;;;;5073310;28;20415;-87
2022/11/01 02:26:27;;;;;;;6.23;4.43;;;11.90;97.30;;;;;;5073005;28;20442;-88
2022/11/01 02:29:00;;;;;;;8.87;5.30;;;11.90;97.30;;;;;;5073084;28;20916;-87
2022/11/01 02:31:26;;;;;;;6.83;4.90;;;11.80;97.30;;;;;;5072870;28;20178;-87
2022/11/01 02:34:23;;;;;;;6.33;5.53;;;11.80;97.30;;;;;;5072871;28;20794;-88
2022/11/01 02:37:15;;;;;;;6.90;4.90;;;12.00;97.30;;;;;;5073135;28;20352;-89
2022/11/01 02:39:48;;;;;;;6.73;6.30;;;12.10;97.30;;;;;;5072760;28;20444;-88
2022/11/01 02:42:18;;;;;;;31.30;8.63;;;12.20;97.30;;;;;;5073160;28;20435;-87
2022/11/01 02:44:51;;;;;;;5.93;4.83;;;12.20;97.30;;;;;;5072742;28;20707;-88
2022/11/01 02:47:16;;;;;;;5.93;4.33;;;12.10;97.30;;;;;;5091091;28;20404;-87
2022/11/01 02:49:45;;;;;;;15.13;5.80;;;12.10;97.30;;;;;;5072914;28;20413;-87
2022/11/01 02:52:14;;;;;;;9.10;4.67;;;12.00;97.30;;;;;;5072879;28;20659;-88
2022/11/01 02:54:47;;;;;;;5.90;4.57;;;12.00;97.30;;;;;;5072860;28;20493;-88
2022/11/01 02:57:16;;;;;;;11.07;6.93;;;11.90;97.30;;;;;;5072730;28;20460;-87
2022/11/01 02:59:47;;;;;;;14.93;6.43;;;11.90;97.30;;;;;;5090968;28;20404;-85
2022/11/01 03:02:38;;;;;;;6.00;5.70;;;11.80;97.30;;;;;;5062744;28;20860;-87
2022/11/01 03:05:11;;;;;;;9.53;5.37;;;11.70;97.30;;;;;;5051905;28;20433;-88
2022/11/01 03:07:38;;;;;;;5.50;3.80;;;11.70;97.30;;;;;;5069558;28;20508;-88
2022/11/01 03:10:04;;;;;;;10.80;6.67;;;11.70;97.30;;;;;;5050842;28;20417;-89
2022/11/01 03:12:35;;;;;;;10.77;6.17;;;11.70;97.30;;;;;;5050713;28;20471;-89
2022/11/01 03:15:21;;;;;;;7.43;3.87;;;11.60;97.30;;;;;;5052303;28;21067;-89
2022/11/01 03:17:54;;;;;;;7.20;6.80;;;11.60;97.30;;;;;;5049004;28;20423;-87
2022/11/01 03:20:46;;;;;;;4.50;3.90;;;11.50;97.30;;;;;;5032627;28;20421;-87
2022/11/01 03:23:21;;;;;;;5.37;4.17;;;11.50;97.30;;;;;;5038048;28;20446;-87
2022/11/01 03:25:52;;;;;;;7.20;3.97;;;11.50;97.30;;;;;;5039147;28;20446;-87
2022/11/01 03:28:29;;;;;;;10.70;5.93;;;11.40;97.30;;;;;;5039118;28;20505;-87
2022/11/01 03:31:22;;;;;;;6.67;4.57;;;11.40;97.30;;;;;;5038996;28;20418;-88
2022/11/01 03:33:51;;;;;;;7.93;4.40;;;11.40;97.30;;;;;;5038815;28;20500;-86
2022/11/01 03:36:19;;;;;;;8.70;5.67;;;11.40;97.30;;;;;;5038883;28;20497;-88
2022/11/01 03:38:54;;;;;;;10.53;5.00;;;11.40;97.30;;;;;;5057210;28;20410;-87
2022/11/01 03:41:22;;;;;;;9.07;7.37;;;11.40;97.30;;;;;;5039184;28;20436;-87
2022/11/01 03:43:47;;;;;;;7.13;4.77;;;11.50;97.30;;;;;;5039056;28;20410;-90
2022/11/01 03:46:14;;;;;;;8.33;5.10;;;11.40;97.30;;;;;;5039275;28;20436;-87
2022/11/01 03:48:40;;;;;;;18.83;6.80;;;11.30;97.30;;;;;;5039006;28;20179;-90
2022/11/01 03:51:06;;;;;;;36.63;4.87;;;11.30;97.30;;;;;;5039404;28;20404;-87
2022/11/01 03:53:31;;;;;;;8.93;5.90;;;11.20;97.30;;;;;;5038960;28;20441;-87
2022/11/01 03:55:57;;;;;;;4.63;3.60;;;11.20;97.30;;;;;;5038856;28;20199;-87
2022/11/01 03:58:22;;;;;;;5.20;4.83;;;11.20;97.30;;;;;;5039294;28;20642;-87
2022/11/01 04:00:49;;;;;;;6.90;4.20;;;11.30;97.30;;;;;;5039749;28;20172;-90
2022/11/01 04:03:15;;;;;;;14.70;7.67;;;11.30;97.30;;;;;;5040536;28;20203;-88
2022/11/01 04:05:41;;;;;;;6.97;4.80;;;11.30;97.30;;;;;;5040627;28;20998;-89
2022/11/01 04:08:09;;;;;;;8.83;3.93;;;11.30;97.30;;;;;;5045599;28;20402;-92
2022/11/01 04:10:35;;;;;;;7.63;5.13;;;11.30;97.30;;;;;;5065274;28;20429;-87
2022/11/01 04:13:01;;;;;;;6.03;4.50;;;11.30;97.30;;;;;;5083039;28;20433;-92
2022/11/01 04:21:08;;;;;;;10.53;5.40;;;11.10;97.30;;;;;;5075765;28;20525;-86
2022/11/01 04:23:34;;;;;;;7.70;5.30;;;11.10;97.30;;;;;;5049122;28;20494;-86
2022/11/01 04:26:00;;;;;;;6.83;4.33;;;11.20;97.30;;;;;;5051126;28;20434;-87
2022/11/01 04:28:26;;;;;;;7.10;4.40;;;11.40;97.30;;;;;;5067647;28;20265;-88
2022/11/01 04:30:52;;;;;;;4.43;4.13;;;11.60;97.30;;;;;;5049323;28;20413;-87
2022/11/01 04:33:17;;;;;;;5.40;3.87;;;11.70;97.30;;;;;;5048390;28;20194;-87
2022/11/01 04:35:43;;;;;;;6.03;3.57;;;11.80;97.30;;;;;;5044099;28;20688;-87
2022/11/01 04:38:10;;;;;;;8.13;4.77;;;11.90;97.30;;;;;;5049708;28;20176;-86
2022/11/01 04:40:36;;;;;;;4.90;4.50;;;12.00;97.30;;;;;;5048091;28;20424;-86
2022/11/01 04:43:02;;;;;;;5.87;4.43;;;12.10;97.30;;;;;;5038666;28;20425;-87
2022/11/01 04:45:28;;;;;;;16.93;6.10;;;12.00;97.30;;;;;;5056434;28;20430;-87
2022/11/01 04:48:05;;;;;;;6.00;4.73;;;12.00;97.30;;;;;;5038303;28;20457;-87
2022/11/01 04:50:31;;;;;;;19.03;8.40;;;11.90;97.30;;;;;;5038923;28;20175;-86
2022/11/01 04:52:58;;;;;;;6.73;3.53;;;11.90;97.30;;;;;;5038417;28;20427;-87
2022/11/01 04:55:24;;;;;;;4.30;3.13;;;11.80;97.30;;;;;;5038141;28;20574;-88
2022/11/01 04:57:50;;;;;;;11.13;4.50;;;11.70;97.30;;;;;;5038785;28;20413;-88
2022/11/01 05:00:15;;;;;;;7.80;3.90;;;11.70;97.30;;;;;;5038930;28;20423;-87
2022/11/01 05:02:41;;;;;;;10.13;4.97;;;11.60;97.30;;;;;;5037867;28;20273;-88
2022/11/01 05:05:09;;;;;;;9.70;5.53;;;11.50;97.30;;;;;;5040644;28;20219;-87
2022/11/01 05:07:35;;;;;;;4.53;4.27;;;11.50;97.30;;;;;;5040548;28;20239;-86
2022/11/01 05:10:01;;;;;;;5.83;3.20;;;11.50;97.30;;;;;;5042354;28;20461;-87
2022/11/01 05:12:27;;;;;;;6.50;2.93;;;11.60;97.30;;;;;;5047695;28;20183;-85
2022/11/01 05:14:52;;;;;;;6.47;3.50;;;11.70;97.30;;;;;;5053653;28;20461;-86
2022/11/01 05:17:18;;;;;;;6.83;4.17;;;11.80;97.30;;;;;;5055338;28;20679;-87
2022/11/01 05:19:44;;;;;;;4.77;4.03;;;11.90;97.30;;;;;;5049554;28;20549;-88
2022/11/01 05:22:09;;;;;;;4.97;3.83;;;12.00;97.30;;;;;;5053179;28;21045;-86
2022/11/01 05:24:35;;;;;;;8.87;4.73;;;12.20;97.30;;;;;;5048024;28;20192;-87
2022/11/01 05:27:00;;;;;;;6.40;3.33;;;12.20;97.30;;;;;;5052903;28;20183;-87
2022/11/01 05:29:26;;;;;;;3.63;3.40;;;12.20;97.30;;;;;;5048192;28;20177;-86
2022/11/01 05:32:09;;;;;;;4.67;3.70;;;12.20;97.30;;;;;;5064732;28;20194;-84
2022/11/01 05:34:39;;;;;;;6.47;4.90;;;12.30;97.30;;;;;;5052444;28;20199;-85
2022/11/01 05:37:08;;;;;;;6.40;3.60;;;12.40;97.30;;;;;;5051801;28;20465;-89
2022/11/01 05:39:33;;;;;;;15.70;5.57;;;12.30;97.30;;;;;;5053902;28;20413;-87
2022/11/01 05:41:59;;;;;;;7.40;3.77;;;12.40;97.30;;;;;;5053470;28;20513;-88
2022/11/01 05:44:24;;;;;;;6.90;3.90;;;12.50;97.30;;;;;;5052068;28;20179;-87
2022/11/01 05:46:50;;;;;;;2.97;2.77;;;12.50;97.30;;;;;;5052848;28;20191;-87
2022/11/01 05:49:15;;;;;;;15.70;6.10;;;12.50;97.30;;;;;;5052499;28;20178;-89
2022/11/01 05:51:41;;;;;;;3.13;2.87;;;12.60;97.30;;;;;;5052171;28;20634;-88
2022/11/01 05:54:07;;;;;;;5.03;3.17;;;12.60;97.30;;;;;;5052871;28;20728;-88
2022/11/01 05:56:32;;;;;;;9.40;4.30;;;12.70;97.30;;;;;;5052915;28;20586;-88
2022/11/01 05:58:58;;;;;;;4.97;3.13;;;12.70;97.30;;;;;;5053896;28;20546;-85
2022/11/01 06:01:23;;;;;;;2.50;2.30;;;12.70;97.30;;;;;;5054894;28;20537;-87
2022/11/01 06:03:49;;;;;;;2.93;2.70;;;12.70;97.30;;;;;;5055024;28;20786;-86
2022/11/01 06:06:15;;;;;;;5.63;4.00;;;12.60;97.30;;;;;;5055353;28;20237;-87
2022/11/01 06:08:40;;;;;;;5.37;4.40;;;12.50;97.30;;;;;;5055595;28;20172;-88
2022/11/01 06:11:06;;;;;;;7.20;4.60;;;12.50;97.30;;;;;;5055052;28;20769;-88
2022/11/01 06:13:32;;;;;;;6.27;4.20;;;12.50;97.30;;;;;;5055301;28;20265;-88
2022/11/01 06:16:00;;;;;;;9.73;4.47;;;12.50;97.30;;;;;;5054606;28;20227;-87
2022/11/01 06:18:26;;;;;;;10.43;4.47;;;12.70;97.30;;;;;;5038216;28;20413;-87
2022/11/01 06:20:52;;;;;;;2.47;2.17;;;12.70;97.30;;;;;;5054632;28;20420;-87
2022/11/01 06:23:17;;;;;;;6.60;3.53;;;12.80;97.30;;;;;;5054799;28;20182;-87
2022/11/01 06:25:43;;;;;;;4.20;3.90;;;12.80;97.30;;;;;;5054291;28;20813;-87
2022/11/01 06:28:08;;;;;;;7.83;3.17;;;12.90;97.30;;;;;;5072501;28;20184;-88
2022/11/01 06:30:34;;;;;;;2.60;2.40;;;13.00;97.30;;;;;;5054816;28;20179;-87
2022/11/01 06:33:01;;;;;;;4.70;3.57;;;13.00;97.30;;;;;;5054793;28;20186;-86
2022/11/01 06:35:27;;;;;;;7.33;4.60;;;13.00;97.30;;;;;;5054377;28;20203;-87
2022/11/01 06:37:53;;;;;;;5.23;4.47;;;13.00;97.30;;;;;;5054839;28;20408;-88
2022/11/01 06:40:19;;;;;;;3.00;2.83;;;13.00;97.30;;;;;;5072544;28;20410;-87
2022/11/01 06:42:44;;;;;;;3.03;2.23;;;13.10;97.30;;;;;;5054611;28;20490;-87
2022/11/01 06:45:10;;;;;;;3.67;3.43;;;13.10;97.30;;;;;;5054370;28;20191;-86
2022/11/01 06:47:36;;;;;;;5.00;3.60;;;13.20;97.30;;;;;;5054746;28;20171;-85
2022/11/01 06:50:02;;;;;;;4.83;2.87;;;13.30;97.30;;;;;;5054539;28;20182;-88
2022/11/01 06:52:28;;;;;;;8.20;4.70;;;13.40;97.30;;;;;;5054344;28;20171;-85
2022/11/01 06:54:53;;;;;;;22.50;4.97;;;13.50;97.30;;;;;;5071791;28;20432;-87
2022/11/01 06:57:19;;;;;;;6.43;2.57;;;13.60;97.30;;;;;;5071701;28;20278;-86
2022/11/01 06:59:44;;;;;;;8.10;2.67;;;13.60;97.30;;;;;;5054516;28;20761;-86
2022/11/01 07:02:10;;;;;;;4.13;3.60;;;13.70;97.30;;;;;;5054184;28;20169;-87
2022/11/01 07:04:36;;;;;;;3.27;3.03;;;13.80;97.30;;;;;;5054182;28;20199;-86
2022/11/01 07:07:02;;;;;;;6.00;3.13;;;13.90;97.30;;;;;;5053766;28;20183;-87
2022/11/01 07:09:28;;;;;;;3.73;2.47;;;14.00;97.30;;;;;;5054278;28;20417;-87
2022/11/01 07:11:53;;;;;;;6.40;3.10;;;14.00;97.30;;;;;;5041518;28;20425;-89
2022/11/01 07:14:19;;;;;;;7.60;4.13;;;14.10;97.30;;;;;;5033202;28;20223;-87
2022/11/01 07:16:44;;;;;;;6.17;4.23;;;14.10;97.30;;;;;;5049066;28;20226;-88
2022/11/01 07:19:10;;;;;;;5.40;5.10;;;14.20;97.30;;;;;;5052775;28;20181;-88
2022/11/01 07:21:36;;;;;;;32.63;5.37;;;14.30;97.30;;;;;;5052801;28;20171;-88
2022/11/01 07:24:02;;;;;;;3.23;1.93;;;14.40;97.30;;;;;;5052787;28;20409;-89
2022/11/01 07:26:28;;;;;;;4.37;3.07;;;14.50;97.30;;;;;;5052917;28;20194;-90
2022/11/01 07:28:53;;;;;;;3.57;3.37;;;14.50;97.30;;;;;;5071049;28;20167;-89
2022/11/01 07:31:19;;;;;;;4.57;2.80;;;14.60;97.30;;;;;;5052660;28;20213;-90
2022/11/01 07:33:44;;;;;;;9.00;5.20;;;14.80;97.30;;;;;;5052966;28;20183;-90
2022/11/01 07:36:10;;;;;;;12.50;3.33;;;14.80;97.30;;;;;;5052615;28;20223;-89
2022/11/01 07:38:37;;;;;;;3.63;2.87;;;14.90;97.30;;;;;;5061246;28;20183;-87
2022/11/01 07:41:03;;;;;;;3.87;3.67;;;15.00;97.30;;;;;;5038312;28;20663;-88
2022/11/01 07:43:29;;;;;;;2.60;2.40;;;15.10;97.30;;;;;;5034418;28;20418;-88
2022/11/01 07:45:59;;;;;;;17.73;3.37;;;15.20;97.30;;;;;;5051848;28;20784;-88
2022/11/01 07:48:25;;;;;;;1.83;1.77;;;15.20;97.30;;;;;;5034079;28;20249;-88
2022/11/01 07:50:55;;;;;;;3.30;2.97;;;15.30;97.30;;;;;;5033959;28;20859;-88
2022/11/01 07:53:21;;;;;;;4.20;2.63;;;15.40;97.30;;;;;;5034325;28;20601;-88
2022/11/01 07:55:46;;;;;;;24.57;3.77;;;15.50;97.30;;;;;;5033884;28;20466;-88
2022/11/01 07:58:13;;;;;;;6.90;4.10;;;15.50;97.30;;;;;;5038979;28;20225;-89
2022/11/01 08:00:39;;;;;;;4.80;3.00;;;15.60;97.30;;;;;;5035103;28;20176;-89
2022/11/01 08:03:08;;;;;;;4.00;3.57;;;15.60;97.30;;;;;;5045095;28;20429;-90
2022/11/01 08:05:34;;;;;;;3.67;3.23;;;15.70;97.30;;;;;;5041063;28;20450;-91
2022/11/01 08:08:00;;;;;;;6.90;2.70;;;15.70;97.30;;;;;;5086580;28;20425;-91
2022/11/01 08:10:26;;;;;;;6.93;3.73;;;15.80;97.30;;;;;;5065531;28;20465;-92
2022/11/01 08:12:51;;;;;;;8.73;4.30;;;15.80;97.30;;;;;;5069662;28;20228;-90
2022/11/01 08:15:17;;;;;;;3.87;2.57;;;15.90;97.30;;;;;;5076744;28;20473;-93
2022/11/01 08:17:43;;;;;;;14.67;3.87;;;15.90;97.30;;;;;;5078250;28;20604;-89
2022/11/01 08:20:09;;;;;;;10.97;3.20;;;16.00;97.30;;;;;;5078130;28;20186;-93
2022/11/01 08:22:39;;;;;;;26.93;4.70;;;16.00;97.30;;;;;;5102077;28;20190;-93
2022/11/01 08:25:05;;;;;;;3.40;3.00;;;16.00;97.30;;;;;;5120015;28;20442;-95
2022/11/01 08:27:30;;;;;;;3.77;3.50;;;16.00;97.30;;;;;;5100989;28;20426;-91
2022/11/01 08:29:56;;;;;;;6.20;2.70;;;16.00;97.30;;;;;;5097368;28;20482;-90
2022/11/01 08:32:21;;;;;;;4.57;3.07;;;16.00;97.30;;;;;;5075692;28;20202;-88
2022/11/01 08:34:47;;;;;;;6.13;3.47;;;16.00;97.30;;;;;;5076307;28;20198;-89
2022/11/01 08:37:13;;;;;;;2.60;2.40;;;16.00;97.30;;;;;;5095472;28;20339;-89
2022/11/01 08:39:38;;;;;;;3.30;3.10;;;16.00;97.30;;;;;;5093608;28;20206;-90
2022/11/01 08:42:04;;;;;;;7.80;3.40;;;16.00;97.30;;;;;;5076479;28;20181;-88
2022/11/01 08:44:31;;;;;;;4.37;3.10;;;16.00;97.30;;;;;;5076370;28;20602;-88
2022/11/01 08:46:59;;;;;;;4.17;3.50;;;16.00;97.30;;;;;;5075658;28;20178;-89
2022/11/01 08:49:25;;;;;;;3.80;3.60;;;16.00;97.30;;;;;;5076902;28;20496;-89
2022/11/01 08:51:51;;;;;;;3.57;2.40;;;16.00;97.30;;;;;;5077229;28;20416;-89
2022/11/01 08:54:17;;;;;;;4.63;2.17;;;16.10;97.30;;;;;;5076191;28;20201;-88
2022/11/01 08:56:42;;;;;;;12.53;3.80;;;16.10;97.30;;;;;;5075880;28;20198;-89
2022/11/01 08:59:08;;;;;;;3.23;2.10;;;16.20;97.30;;;;;;5075958;28;20210;-89
2022/11/01 09:01:34;;;;;;;3.60;2.40;;;16.20;97.30;;;;;;5075449;28;20178;-89
2022/11/01 09:04:00;;;;;;;7.00;3.47;;;16.30;97.30;;;;;;5076011;28;20511;-89
2022/11/01 09:06:27;;;;;;;6.90;2.63;;;16.40;97.30;;;;;;5075691;28;20198;-89
2022/11/01 09:08:53;;;;;;;4.30;2.30;;;16.50;97.30;;;;;;5075780;28;20436;-89
2022/11/01 09:11:20;;;;;;;5.53;3.40;;;16.50;97.30;;;;;;5075920;28;20450;-88
2022/11/01 09:13:46;;;;;;;3.20;2.37;;;16.60;97.30;;;;;;5062243;28;20429;-90
2022/11/01 09:16:11;;;;;;;2.10;1.80;;;16.80;97.30;;;;;;5065542;28;20483;-89
2022/11/01 09:18:37;;;;;;;3.43;2.90;;;17.00;97.30;;;;;;5059814;28;20655;-90
2022/11/01 09:21:03;;;;;;;4.20;2.93;;;17.20;97.30;;;;;;5054871;28;20176;-88
2022/11/01 09:23:28;;;;;;;9.67;3.30;;;17.40;97.30;;;;;;5054964;28;20183;-90
2022/11/01 09:26:04;;;;;;;2.77;2.57;;;17.50;97.30;;;;;;5056059;28;20202;-88
2022/11/01 09:28:31;;;;;;;6.20;3.07;;;17.40;97.30;;;;;;5056828;28;20179;-89
2022/11/01 09:31:04;;;;;;;3.20;2.90;;;17.50;97.30;;;;;;5056340;28;20448;-88
2022/11/01 09:33:32;;;;;;;1.83;1.73;;;17.50;97.30;;;;;;5049448;28;20425;-89
2022/11/01 09:36:01;;;;;;;2.23;1.80;;;17.60;97.30;;;;;;5036707;28;20457;-89
2022/11/01 09:38:29;;;;;;;9.17;3.07;;;17.60;97.30;;;;;;5044424;28;20527;-88
2022/11/01 09:41:04;;;;;;;2.53;2.33;;;17.60;97.30;;;;;;5044325;28;20935;-88
2022/11/01 09:43:33;;;;;;;2.27;2.00;;;17.70;97.30;;;;;;5044592;28;20480;-88
2022/11/01 09:46:01;;;;;;;3.63;2.57;;;17.70;97.30;;;;;;5046411;28;20469;-88
2022/11/01 09:48:29;;;;;;;3.90;3.13;;;17.70;97.30;;;;;;5041956;28;20952;-89
2022/11/01 09:50:55;;;;;;;4.93;2.93;;;17.70;97.30;;;;;;5045590;28;20510;-88
2022/11/01 09:53:24;;;;;;;4.83;3.40;;;17.70;97.30;;;;;;5043767;28;20497;-88
2022/11/01 09:56:09;;;;;;;3.70;2.57;;;17.60;97.30;;;;;;5043225;28;20682;-89
2022/11/01 09:58:52;;;;;;;2.40;2.20;;;17.60;97.30;;;;;;5042248;28;20422;-90
2022/11/01 10:01:39;;;;;;;6.23;3.33;;;17.60;97.30;;;;;;5042847;28;20793;-89
2022/11/01 10:06:44;;;;;;;4.03;3.00;;;17.40;97.30;;;;;;5039221;22;20516;-88
2022/11/01 10:09:29;;;;;;;21.63;2.90;;;17.40;97.30;;;;;;5010648;28;20474;-88
2022/11/01 10:12:06;;;;;;;6.30;3.90;;;17.30;97.30;;;;;;5008153;28;20806;-88
2022/11/01 10:14:38;;;;;;;6.77;3.13;;;17.20;97.30;;;;;;5033133;28;20520;-88
2022/11/01 10:17:09;;;;;;;7.93;3.50;;;17.20;97.30;;;;;;5046964;28;20972;-88
2022/11/01 10:19:35;;;;;;;4.23;2.83;;;17.20;97.30;;;;;;5026946;28;20917;-89
2022/11/01 10:22:15;;;;;;;5.23;4.40;;;17.20;97.30;;;;;;5031607;28;20431;-91
2022/11/01 10:24:43;;;;;;;4.70;3.20;;;17.30;97.30;;;;;;5048086;28;20429;-89
2022/11/01 10:27:25;;;;;;;9.47;4.80;;;17.30;97.30;;;;;;5052465;28;20472;-89
2022/11/01 10:29:59;;;;;;;9.47;2.00;;;17.40;97.30;;;;;;5042460;28;20422;-89
2022/11/01 10:32:57;;;;;;;3.90;2.37;;;17.40;97.30;;;;;;5060901;28;20429;-89
2022/11/01 10:35:36;;;;;;;16.43;2.60;;;17.40;97.30;;;;;;5043599;28;20470;-89
2022/11/01 10:38:21;;;;;;;3.37;3.20;;;17.50;97.30;;;;;;5040503;28;20399;-88
2022/11/01 10:40:54;;;;;;;15.23;3.43;;;17.60;97.30;;;;;;5033364;28;20415;-91
2022/11/01 10:43:21;;;;;;;6.13;1.33;;;17.70;97.30;;;;;;5032409;28;20425;-89
2022/11/01 10:45:50;;;;;;;4.67;2.47;;;17.70;97.30;;;;;;5034305;28;20437;-88
2022/11/01 10:48:41;;;;;;;6.30;4.13;;;17.70;97.30;;;;;;5033655;28;20414;-89
2022/11/01 10:51:09;;;;;;;6.40;2.73;;;17.80;97.30;;;;;;5031269;28;20422;-88
2022/11/01 10:53:43;;;;;;;2.00;1.90;;;17.90;97.30;;;;;;5035108;28;20458;-89
2022/11/01 10:56:23;;;;;;;2.13;1.97;;;18.00;97.30;;;;;;5033250;28;20516;-88
2022/11/01 10:58:59;;;;;;;4.47;2.33;;;18.00;97.30;;;;;;5031873;28;21393;-89
2022/11/01 11:01:27;;;;;;;4.00;2.20;;;18.00;97.30;;;;;;5027894;28;20485;-89
2022/11/01 11:03:54;;;;;;;2.67;1.50;;;18.00;97.30;;;;;;5033040;28;20430;-89
2022/11/01 11:06:22;;;;;;;2.23;1.67;;;18.00;97.30;;;;;;5033391;28;20598;-89
2022/11/01 11:08:54;;;;;;;2.37;2.17;;;18.10;97.30;;;;;;5033604;28;20414;-89
2022/11/01 11:11:34;;;;;;;2.60;2.40;;;18.10;97.30;;;;;;5034171;28;20905;-88
2022/11/01 11:14:03;;;;;;;5.07;2.80;;;18.10;97.30;;;;;;5033994;28;20468;-90
2022/11/01 11:16:43;;;;;;;4.50;2.47;;;18.10;97.30;;;;;;5030244;28;20463;-90
2022/11/01 11:19:44;;;;;;;3.00;1.67;;;18.20;97.30;;;;;;5030375;28;20525;-88
2022/11/01 11:22:11;;;;;;;5.50;1.73;;;18.20;97.30;;;;;;4968347;28;20416;-89
2022/11/01 11:24:40;;;;;;;2.90;1.60;;;18.20;97.30;;;;;;5029675;28;20898;-88
2022/11/01 11:27:17;;;;;;;4.83;2.60;;;18.20;97.30;;;;;;5029700;28;20431;-89
2022/11/01 11:29:52;;;;;;;2.43;2.23;;;18.20;97.30;;;;;;5030039;28;20423;-89
2022/11/01 11:32:27;;;;;;;2.20;2.00;;;18.20;97.30;;;;;;5029885;28;20903;-90
2022/11/01 11:34:59;;;;;;;3.27;1.80;;;18.20;97.30;;;;;;5029684;28;20873;-90
2022/11/01 11:37:28;;;;;;;3.00;1.73;;;18.20;97.30;;;;;;5029970;28;20455;-89
2022/11/01 11:40:11;;;;;;;1.67;1.40;;;18.20;97.30;;;;;;5030010;28;20411;-88
2022/11/01 11:42:36;;;;;;;2.93;1.97;;;18.30;97.30;;;;;;5031483;28;20403;-92
2022/11/01 11:45:21;;;;;;;2.40;1.40;;;18.30;97.30;;;;;;5033344;28;20446;-89
2022/11/01 11:47:47;;;;;;;1.00;0.90;;;18.30;97.30;;;;;;5034126;28;20237;-88
2022/11/01 11:50:19;;;;;;;2.80;1.47;;;18.30;97.30;;;;;;5033908;28;20498;-90
2022/11/01 11:52:48;;;;;;;4.23;1.83;;;18.40;97.30;;;;;;5033108;28;20494;-90
2022/11/01 11:55:28;;;;;;;1.20;1.10;;;18.40;97.30;;;;;;5032992;28;20861;-89
2022/11/01 11:57:55;;;;;;;3.37;2.10;;;18.40;97.30;;;;;;5033672;28;20430;-90
2022/11/01 12:00:22;;;;;;;2.57;2.13;;;18.40;97.30;;;;;;5033276;28;20459;-89
2022/11/01 12:03:26;;;;;;;1.73;1.30;;;18.50;97.30;;;;;;5034727;28;20558;-89
2022/11/01 12:06:36;;;;;;;3.17;2.20;;;18.60;97.30;;;;;;5014352;23;20501;-89
2022/11/01 12:09:05;;;;;;;1.10;1.00;;;18.70;97.30;;;;;;5032313;28;20431;-89
2022/11/01 12:12:04;;;;;;;1.63;1.53;;;18.70;97.30;;;;;;5036619;28;20418;-89
2022/11/01 12:14:45;;;;;;;1.23;1.13;;;18.80;97.30;;;;;;4950777;29;20452;-89
2022/11/01 12:17:55;;;;;;;1.90;1.63;;;18.80;97.30;;;;;;4903476;29;21006;-87
2022/11/01 12:21:14;;;;;;;2.40;1.10;;;18.80;97.30;;;;;;4897980;29;20429;-88
2022/11/01 12:27:04;;;;;;;3.57;2.47;;;18.80;97.30;;;;;;4840828;29;20430;-89
2022/11/01 12:30:14;;;;;;;1.70;1.60;;;18.80;97.30;;;;;;4898011;29;20485;-90
2022/11/01 12:33:35;;;;;;;1.27;1.17;;;18.70;97.30;;;;;;4904373;29;20432;-92
2022/11/01 12:41:31;;;;;;;2.17;1.00;;;18.60;97.30;;;;;;5032465;28;20471;-88
2022/11/01 12:44:23;;;;;;;2.40;1.97;;;18.60;97.30;;;;;;5016026;28;20829;-89
2022/11/01 12:47:16;;;;;;;1.00;0.80;;;18.70;97.30;;;;;;4997481;28;20424;-89
2022/11/01 12:49:51;;;;;;;1.00;0.90;;;18.70;97.30;;;;;;5013408;28;20416;-88
2022/11/01 12:52:25;;;;;;;1.40;1.33;;;18.60;97.30;;;;;;4996878;28;20447;-87
2022/11/01 12:55:18;;;;;;;1.67;1.60;;;18.60;97.30;;;;;;4995159;28;20436;-87
2022/11/01 12:57:44;;;;;;;1.10;1.00;;;18.60;97.30;;;;;;4996566;28;20795;-88
2022/11/01 13:00:14;;;;;;;1.50;1.40;;;18.60;97.30;;;;;;5012630;28;20427;-89
2022/11/01 13:07:05;;;;;;;5.10;2.40;;;18.70;97.30;;;;;;4962591;28;20431;-88
2022/11/01 13:10:15;;;;;;;1.47;1.37;;;18.80;97.30;;;;;;4992630;28;20425;-88
2022/11/01 13:16:47;;;;;;;1.30;1.20;;;19.00;97.30;;;;;;5003837;22;21009;-83
2022/11/01 13:19:25;;;;;;;0.80;0.77;;;18.90;97.30;;;;;;5014763;28;20443;-83
2022/11/01 13:21:54;;;;;;;1.00;0.90;;;18.80;97.30;;;;;;5014503;28;20513;-83
2022/11/01 13:24:33;;;;;;;1.47;1.40;;;18.70;97.30;;;;;;5032705;28;20435;-84
2022/11/01 13:27:11;;;;;;;1.30;1.20;;;18.60;97.30;;;;;;5031280;28;20515;-84
2022/11/01 13:29:44;;;;;;;3.33;1.70;;;18.50;97.30;;;;;;5014696;28;20422;-83
2022/11/01 13:32:54;;;;;;;4.93;2.13;;;18.40;97.30;;;;;;5014583;28;20450;-83